createdAt,value
2022-11-23T00:01:13.704Z,88.58
2022-11-23T00:03:41.352Z,88.76
2022-11-23T00:06:11.054Z,88.48
2022-11-23T00:08:38.930Z,88.63
2022-11-23T00:11:07.121Z,88.69
2022-11-23T00:13:37.109Z,88.91
2022-11-23T00:16:10.599Z,89.35
2022-11-23T00:18:39.641Z,88.08
2022-11-23T00:21:13.157Z,88.68
2022-11-23T00:23:42.938Z,88.65
2022-11-23T00:26:11.204Z,88.78
2022-11-23T00:28:42.009Z,88.96
2022-11-23T00:31:13.975Z,89.67
2022-11-23T00:33:42.131Z,89.56
2022-11-23T00:36:12.635Z,89.21
2022-11-23T00:38:40.730Z,89.28
2022-11-23T00:41:10.300Z,88.94
2022-11-23T00:43:38.104Z,89.20
2022-11-23T00:46:07.794Z,89.23
2022-11-23T00:48:37.546Z,88.82
2022-11-23T00:51:07.294Z,88.73
2022-11-23T00:53:35.486Z,88.85
2022-11-23T00:56:03.279Z,88.58
2022-11-23T00:58:31.412Z,88.34
2022-11-23T01:01:04.169Z,88.74
2022-11-23T01:03:32.214Z,88.87
2022-11-23T01:06:08.861Z,89.06
2022-11-23T01:08:36.809Z,89.03
2022-11-23T01:11:07.147Z,89.33
2022-11-23T01:13:34.921Z,88.69
2022-11-23T01:16:02.898Z,88.27
2022-11-23T01:18:30.737Z,88.93
2022-11-23T01:20:58.726Z,89.35
2022-11-23T01:23:29.647Z,88.73
2022-11-23T01:25:57.415Z,88.89
2022-11-23T01:28:25.776Z,88.66
2022-11-23T01:30:53.433Z,88.14
2022-11-23T01:33:21.145Z,88.21
2022-11-23T01:35:48.835Z,88.45
2022-11-23T01:38:18.342Z,88.46
2022-11-23T01:40:47.695Z,88.30
2022-11-23T01:43:16.979Z,88.46
2022-11-23T01:45:46.359Z,88.63
2022-11-23T01:48:18.524Z,88.72
2022-11-23T01:50:49.860Z,88.54
2022-11-23T01:53:17.972Z,88.38
2022-11-23T01:55:48.430Z,88.25
2022-11-23T01:58:19.722Z,88.35
2022-11-23T02:00:47.752Z,88.24
2022-11-23T02:03:15.688Z,87.95
2022-11-23T02:05:48.029Z,87.96
2022-11-23T02:08:17.961Z,87.97
2022-11-23T02:10:48.403Z,88.09
2022-11-23T02:13:21.054Z,88.39
2022-11-23T02:15:48.739Z,89.06
2022-11-23T02:18:20.407Z,88.89
2022-11-23T02:20:49.164Z,89.14
2022-11-23T02:23:29.271Z,88.53
2022-11-23T02:26:03.332Z,88.71
2022-11-23T02:28:37.478Z,88.34
2022-11-23T02:31:05.184Z,88.47
2022-11-23T02:33:32.808Z,88.15
2022-11-23T02:36:02.180Z,87.97
2022-11-23T02:38:33.225Z,88.15
2022-11-23T02:41:02.217Z,88.11
2022-11-23T02:43:29.882Z,87.96
2022-11-23T02:46:00.045Z,88.69
2022-11-23T02:48:27.767Z,88.28
2022-11-23T02:50:55.439Z,88.42
2022-11-23T02:53:23.211Z,88.03
2022-11-23T02:55:50.902Z,88.48
2022-11-23T02:58:19.935Z,88.93
2022-11-23T03:00:47.799Z,88.75
2022-11-23T03:03:15.659Z,88.91
2022-11-23T03:05:43.306Z,88.47
2022-11-23T03:08:11.043Z,88.57
2022-11-23T03:10:38.701Z,88.41
2022-11-23T03:13:06.393Z,87.88
2022-11-23T03:15:35.431Z,88.02
2022-11-23T03:18:03.065Z,87.67
2022-11-23T03:20:30.726Z,87.23
2022-11-23T03:22:58.557Z,87.71
2022-11-23T03:25:26.264Z,87.70
2022-11-23T03:27:53.919Z,87.81
2022-11-23T03:30:21.791Z,87.79
2022-11-23T03:32:50.779Z,87.63
2022-11-23T03:35:18.639Z,87.69
2022-11-23T03:37:46.333Z,87.59
2022-11-23T03:40:14.564Z,87.14
2022-11-23T03:42:42.652Z,87.08
2022-11-23T03:45:11.157Z,87.02
2022-11-23T03:47:39.027Z,86.67
2022-11-23T03:50:09.299Z,87.19
2022-11-23T03:52:37.025Z,87.74
2022-11-23T03:55:05.511Z,87.96
2022-11-23T03:57:33.170Z,88.26
2022-11-23T04:00:00.901Z,88.02
2022-11-23T04:02:28.523Z,88.37
2022-11-23T04:04:56.232Z,88.11
2022-11-23T04:07:25.321Z,87.97
2022-11-23T04:09:53.009Z,88.20
2022-11-23T04:12:20.725Z,88.09
2022-11-23T04:14:48.334Z,87.89
2022-11-23T04:17:16.001Z,87.58
2022-11-23T04:19:43.687Z,88.53
2022-11-23T04:22:11.571Z,88.37
2022-11-23T04:24:40.586Z,88.55
2022-11-23T04:27:08.273Z,87.97
2022-11-23T04:29:36.323Z,87.82
2022-11-23T04:32:06.854Z,87.65
2022-11-23T04:34:34.506Z,87.63
2022-11-23T04:37:02.157Z,87.38
2022-11-23T04:39:30.027Z,87.15
2022-11-23T04:41:59.384Z,87.42
2022-11-23T04:44:27.106Z,88.06
2022-11-23T04:46:54.810Z,88.18
2022-11-23T04:49:22.515Z,88.88
2022-11-23T04:51:50.191Z,88.60
2022-11-23T04:54:17.827Z,88.32
2022-11-23T04:56:45.550Z,87.86
2022-11-23T04:59:20.138Z,88.20
2022-11-23T05:01:47.804Z,88.54
2022-11-23T05:04:17.891Z,88.22
2022-11-23T05:06:45.866Z,88.33
2022-11-23T05:09:13.874Z,88.55
2022-11-23T05:11:44.802Z,88.03
2022-11-23T05:14:12.572Z,88.00
2022-11-23T05:16:41.612Z,88.09
2022-11-23T05:19:12.351Z,88.40
2022-11-23T05:21:39.981Z,87.94
2022-11-23T05:24:10.234Z,87.49
2022-11-23T05:26:37.940Z,87.48
2022-11-23T05:29:05.560Z,87.88
2022-11-23T05:31:33.669Z,87.51
2022-11-23T05:34:04.732Z,87.83
2022-11-23T05:36:32.648Z,88.11
2022-11-23T05:39:00.321Z,88.05
2022-11-23T05:41:28.026Z,88.34
2022-11-23T05:43:55.730Z,87.90
2022-11-23T05:46:23.374Z,87.79
2022-11-23T05:48:51.139Z,87.69
2022-11-23T05:51:20.302Z,87.10
2022-11-23T05:53:48.312Z,87.94
2022-11-23T05:56:15.999Z,88.06
2022-11-23T05:58:43.633Z,88.13
2022-11-23T06:01:11.349Z,87.92
2022-11-23T06:03:39.115Z,88.34
2022-11-23T06:06:07.514Z,88.43
2022-11-23T06:08:36.571Z,87.73
2022-11-23T06:11:04.468Z,87.93
2022-11-23T06:13:32.100Z,87.74
2022-11-23T06:15:59.853Z,87.48
2022-11-23T06:18:27.590Z,87.60
2022-11-23T06:20:55.215Z,87.88
2022-11-23T06:23:22.845Z,88.38
2022-11-23T06:25:51.842Z,88.20
2022-11-23T06:28:19.583Z,87.76
2022-11-23T06:30:47.366Z,87.38
2022-11-23T06:33:15.090Z,87.54
2022-11-23T06:35:42.779Z,88.34
2022-11-23T06:38:10.453Z,88.25
2022-11-23T06:40:38.441Z,88.00
2022-11-23T06:43:08.204Z,88.08
2022-11-23T06:45:36.277Z,87.89
2022-11-23T06:48:04.019Z,87.49
2022-11-23T06:50:31.640Z,87.80
2022-11-23T06:52:59.503Z,87.79
2022-11-23T06:55:27.375Z,87.74
2022-11-23T06:57:55.211Z,87.71
2022-11-23T07:00:24.523Z,87.52
2022-11-23T07:02:53.330Z,88.21
2022-11-23T07:05:21.613Z,88.24
2022-11-23T07:07:49.841Z,87.70
2022-11-23T07:10:18.363Z,87.71
2022-11-23T07:12:46.563Z,87.36
2022-11-23T07:15:15.034Z,86.51
2022-11-23T07:17:45.197Z,86.79
2022-11-23T07:20:14.327Z,86.52
2022-11-23T07:22:42.100Z,86.26
2022-11-23T07:25:11.469Z,86.19
2022-11-23T07:27:39.087Z,86.47
2022-11-23T07:30:08.100Z,87.33
2022-11-23T07:32:35.801Z,86.90
2022-11-23T07:35:05.352Z,86.54
2022-11-23T07:37:33.085Z,86.83
2022-11-23T07:40:01.310Z,87.20
2022-11-23T07:42:36.877Z,87.64
2022-11-23T07:45:10.464Z,87.70
2022-11-23T07:47:38.216Z,87.55
2022-11-23T07:50:08.499Z,87.75
2022-11-23T07:52:37.553Z,87.29
2022-11-23T07:55:06.369Z,86.37
2022-11-23T07:57:34.074Z,86.35
2022-11-23T08:00:02.125Z,86.04
2022-11-23T08:02:29.890Z,85.42
2022-11-23T08:04:57.573Z,85.33
2022-11-23T08:07:27.800Z,84.81
2022-11-23T08:09:55.499Z,85.18
2022-11-23T08:12:23.187Z,84.62
2022-11-23T08:14:50.829Z,84.25
2022-11-23T08:17:18.522Z,84.23
2022-11-23T08:19:46.224Z,84.49
2022-11-23T08:22:15.856Z,84.26
2022-11-23T08:24:45.248Z,83.19
2022-11-23T08:27:12.917Z,83.00
2022-11-23T08:29:40.851Z,83.02
2022-11-23T08:32:08.480Z,82.99
2022-11-23T08:34:36.143Z,82.69
2022-11-23T08:37:03.890Z,83.04
2022-11-23T08:39:31.650Z,82.60
2022-11-23T08:42:00.800Z,81.92
2022-11-23T08:44:28.809Z,82.46
2022-11-23T08:46:56.521Z,81.68
2022-11-23T08:49:24.255Z,82.12
2022-11-23T08:51:51.966Z,80.92
2022-11-23T08:54:19.626Z,77.27
2022-11-23T08:56:47.478Z,70.68
2022-11-23T08:59:17.187Z,63.15
2022-11-23T09:01:45.256Z,56.72
2022-11-23T09:04:17.723Z,52.20
2022-11-23T09:06:48.142Z,48.67
2022-11-23T09:09:15.818Z,45.48
2022-11-23T09:11:43.472Z,42.48
2022-11-23T09:14:12.660Z,40.94
2022-11-23T09:16:41.706Z,40.82
2022-11-23T09:19:14.214Z,38.13
2022-11-23T09:21:43.019Z,33.99
2022-11-23T09:24:11.568Z,30.83
2022-11-23T09:26:39.562Z,29.93
2022-11-23T09:29:08.019Z,30.02
2022-11-23T09:31:36.296Z,30.43
2022-11-23T09:34:05.965Z,31.68
2022-11-23T09:36:33.889Z,33.31
2022-11-23T09:39:01.518Z,36.30
2022-11-23T09:41:52.316Z,40.37
2022-11-23T09:44:25.559Z,44.20
2022-11-23T09:47:04.403Z,47.76
2022-11-23T09:49:42.777Z,51.09
2022-11-23T09:52:17.812Z,53.89
2022-11-23T09:54:48.394Z,55.35
2022-11-23T09:57:20.716Z,56.89
2022-11-23T09:59:53.667Z,57.86
2022-11-23T10:02:23.730Z,57.84
2022-11-23T10:04:54.592Z,57.33
2022-11-23T10:07:40.806Z,57.53
2022-11-23T10:10:20.121Z,54.33
2022-11-23T10:12:55.358Z,50.31
2022-11-23T10:15:27.980Z,42.84
2022-11-23T10:18:06.101Z,37.42
2022-11-23T10:20:45.539Z,36.51
2022-11-23T10:23:19.366Z,39.97
2022-11-23T10:25:49.926Z,43.92
2022-11-23T10:28:20.400Z,42.57
2022-11-23T10:30:53.289Z,40.40
2022-11-23T10:33:27.583Z,40.63
2022-11-23T10:35:56.644Z,41.47
2022-11-23T10:38:28.442Z,40.76
2022-11-23T10:41:04.045Z,39.92
2022-11-23T10:43:38.042Z,38.97
2022-11-23T10:46:27.900Z,37.56
2022-11-23T10:48:56.342Z,38.97
2022-11-23T10:51:33.087Z,37.51
2022-11-23T10:54:05.414Z,37.42
2022-11-23T10:56:34.751Z,37.43
2022-11-23T10:59:02.525Z,38.14
2022-11-23T11:01:30.632Z,38.91
2022-11-23T11:04:04.063Z,39.96
2022-11-23T11:06:36.121Z,40.01
2022-11-23T11:09:08.472Z,38.93
2022-11-23T11:11:46.718Z,39.08
2022-11-23T11:14:17.671Z,39.03
2022-11-23T11:16:49.996Z,37.84
2022-11-23T11:19:28.337Z,35.44
2022-11-23T11:21:58.372Z,35.38
2022-11-23T11:24:33.311Z,36.43
2022-11-23T11:27:04.687Z,37.83
2022-11-23T11:29:39.160Z,39.99
2022-11-23T11:32:12.697Z,42.37
2022-11-23T11:34:46.007Z,44.65
2022-11-23T11:37:19.993Z,46.66
2022-11-23T11:39:52.654Z,48.91
2022-11-23T11:42:31.509Z,50.09
2022-11-23T11:45:02.299Z,50.60
2022-11-23T11:47:34.756Z,51.04
2022-11-23T11:50:12.054Z,51.62
2022-11-23T11:52:43.520Z,52.49
2022-11-23T11:55:16.333Z,52.33
2022-11-23T11:57:48.890Z,51.97
2022-11-23T12:00:19.164Z,51.93
2022-11-23T12:02:59.713Z,52.71
2022-11-23T12:05:37.041Z,53.20
2022-11-23T12:08:12.537Z,53.74
2022-11-23T12:10:48.514Z,54.29
2022-11-23T12:13:18.557Z,54.50
2022-11-23T12:15:50.571Z,53.88
2022-11-23T12:18:45.135Z,53.98
2022-11-23T12:21:27.832Z,54.79
2022-11-23T12:24:06.473Z,55.76
2022-11-23T12:26:44.999Z,56.51
2022-11-23T12:29:35.823Z,56.92
2022-11-23T12:32:15.118Z,56.89
2022-11-23T12:35:00.125Z,56.58
2022-11-23T12:37:44.347Z,57.79
2022-11-23T12:40:45.015Z,57.95
2022-11-23T12:43:15.290Z,57.96
2022-11-23T12:45:57.118Z,58.03
2022-11-23T12:48:38.829Z,57.40
2022-11-23T12:51:17.476Z,56.93
2022-11-23T12:53:53.900Z,57.19
2022-11-23T12:56:38.149Z,56.76
2022-11-23T12:59:09.265Z,56.75
2022-11-23T13:01:41.501Z,57.22
2022-11-23T13:04:42.681Z,57.10
2022-11-23T13:07:47.603Z,57.09
2022-11-23T13:10:25.834Z,57.83
2022-11-23T13:13:14.098Z,58.30
2022-11-23T13:16:01.559Z,59.21
2022-11-23T13:18:44.387Z,58.81
2022-11-23T13:21:23.960Z,58.93
2022-11-23T13:23:51.839Z,58.91
2022-11-23T13:26:21.641Z,59.17
2022-11-23T13:28:52.760Z,59.14
2022-11-23T13:31:26.441Z,59.45
2022-11-23T13:33:56.412Z,58.94
2022-11-23T13:37:11.008Z,58.84
2022-11-23T13:40:06.347Z,58.11
2022-11-23T13:42:37.100Z,57.03
2022-11-23T13:45:30.744Z,55.88
2022-11-23T13:48:07.442Z,55.93
2022-11-23T13:50:35.612Z,55.88
2022-11-23T13:53:04.281Z,55.64
2022-11-23T13:55:35.937Z,55.91
2022-11-23T13:58:37.247Z,56.07
2022-11-23T14:01:06.626Z,55.66
2022-11-23T14:03:55.888Z,55.95
2022-11-23T14:06:37.491Z,56.18
2022-11-23T14:09:14.844Z,54.95
2022-11-23T14:11:54.024Z,55.09
2022-11-23T14:14:27.229Z,54.98
2022-11-23T14:17:20.505Z,55.13
2022-11-23T14:20:09.286Z,55.21
2022-11-23T14:22:48.593Z,54.79
2022-11-23T14:25:39.664Z,54.81
2022-11-23T14:28:22.870Z,54.84
2022-11-23T14:31:04.673Z,54.83
2022-11-23T14:33:40.635Z,54.81
2022-11-23T14:36:21.118Z,55.11
2022-11-23T14:39:24.174Z,55.37
2022-11-23T14:41:56.260Z,55.87
2022-11-23T14:44:28.068Z,55.78
2022-11-23T14:47:02.738Z,55.87
2022-11-23T14:49:32.355Z,56.91
2022-11-23T14:52:01.858Z,56.64
2022-11-23T14:54:31.193Z,56.38
2022-11-23T14:57:01.471Z,56.00
2022-11-23T14:59:32.221Z,56.63
2022-11-23T15:02:02.101Z,57.00
2022-11-23T15:04:35.085Z,57.54
2022-11-23T15:07:08.231Z,58.23
2022-11-23T15:09:46.109Z,58.48
2022-11-23T15:12:23.683Z,58.70
2022-11-23T15:14:51.918Z,58.61
2022-11-23T15:17:21.713Z,58.57
2022-11-23T15:19:59.380Z,58.98
2022-11-23T15:22:28.481Z,59.03
2022-11-23T15:25:06.402Z,58.65
2022-11-23T15:27:34.134Z,58.77
2022-11-23T15:30:02.261Z,58.93
2022-11-23T15:32:33.766Z,59.07
2022-11-23T15:35:07.250Z,59.32
2022-11-23T15:37:42.118Z,59.15
2022-11-23T15:40:14.806Z,58.60
2022-11-23T15:42:43.823Z,59.17
2022-11-23T15:45:36.573Z,58.49
2022-11-23T15:48:07.414Z,58.10
2022-11-23T15:50:45.606Z,57.63
2022-11-23T15:53:13.953Z,57.64
2022-11-23T15:55:43.480Z,57.50
2022-11-23T15:58:17.509Z,57.35
2022-11-23T16:00:50.846Z,56.93
2022-11-23T16:03:29.909Z,56.92
2022-11-23T16:06:17.567Z,56.83
2022-11-23T16:08:45.567Z,56.49
2022-11-23T16:11:34.917Z,56.59
2022-11-23T16:14:17.524Z,56.60
2022-11-23T16:16:46.740Z,56.70
2022-11-23T16:19:24.527Z,57.01
2022-11-23T16:22:00.708Z,57.35
2022-11-23T16:24:31.841Z,57.78
2022-11-23T16:26:59.996Z,57.74
2022-11-23T16:29:32.055Z,58.09
2022-11-23T16:32:02.717Z,59.00
2022-11-23T16:34:30.694Z,59.73
2022-11-23T16:37:03.847Z,59.73
2022-11-23T16:39:31.568Z,60.83
2022-11-23T16:41:59.329Z,61.51
2022-11-23T16:44:41.554Z,62.28
2022-11-23T16:47:21.218Z,63.00
2022-11-23T16:49:49.377Z,63.61
2022-11-23T16:52:18.630Z,64.83
2022-11-23T16:54:46.339Z,65.64
2022-11-23T16:57:24.802Z,66.38
2022-11-23T16:59:52.527Z,67.97
2022-11-23T17:02:20.484Z,69.20
2022-11-23T17:04:48.238Z,71.06
2022-11-23T17:07:16.841Z,71.45
2022-11-23T17:09:45.945Z,72.04
2022-11-23T17:12:17.334Z,73.65
2022-11-23T17:14:47.921Z,74.93
2022-11-23T17:17:20.463Z,75.29
2022-11-23T17:19:49.614Z,75.82
2022-11-23T17:22:18.427Z,76.38
2022-11-23T17:24:48.160Z,76.74
2022-11-23T17:27:18.185Z,77.27
2022-11-23T17:29:47.205Z,77.40
2022-11-23T17:32:15.949Z,78.21
2022-11-23T17:34:43.668Z,79.30
2022-11-23T17:37:17.955Z,79.23
2022-11-23T17:39:47.605Z,79.84
2022-11-23T17:42:15.902Z,80.45
2022-11-23T17:44:43.832Z,80.67
2022-11-23T17:47:18.790Z,81.11
2022-11-23T17:49:46.557Z,80.96
2022-11-23T17:52:14.332Z,81.84
2022-11-23T17:54:42.046Z,82.47
2022-11-23T17:57:15.352Z,82.62
2022-11-23T17:59:46.012Z,82.63
2022-11-23T18:02:13.702Z,83.51
2022-11-23T18:04:41.513Z,83.27
2022-11-23T18:07:13.732Z,84.73
2022-11-23T18:09:41.681Z,83.12
2022-11-23T18:12:10.420Z,83.77
2022-11-23T18:14:39.551Z,83.60
2022-11-23T18:17:07.374Z,83.57
2022-11-23T18:19:35.482Z,81.43
2022-11-23T18:22:03.349Z,80.74
2022-11-23T18:24:31.072Z,81.46
2022-11-23T18:26:58.785Z,80.97
2022-11-23T18:29:26.483Z,81.55
2022-11-23T18:31:55.532Z,82.03
2022-11-23T18:34:23.234Z,81.62
2022-11-23T18:36:50.919Z,82.47
2022-11-23T18:39:18.643Z,82.21
2022-11-23T18:41:47.197Z,82.27
2022-11-23T18:44:14.882Z,82.35
2022-11-23T18:46:44.915Z,82.75
2022-11-23T18:49:14.108Z,83.01
2022-11-23T18:51:41.769Z,82.33
2022-11-23T18:54:09.457Z,82.22
2022-11-23T18:56:37.093Z,81.65
2022-11-23T18:59:04.950Z,82.17
2022-11-23T19:01:32.696Z,82.80
2022-11-23T19:04:01.244Z,83.01
2022-11-23T19:06:30.294Z,83.18
2022-11-23T19:08:57.992Z,82.96
2022-11-23T19:11:28.577Z,82.57
2022-11-23T19:13:58.198Z,83.07
2022-11-23T19:16:31.316Z,83.17
2022-11-23T19:19:01.063Z,83.70
2022-11-23T19:21:31.408Z,84.05
2022-11-23T19:24:00.376Z,84.34
2022-11-23T19:26:30.057Z,84.36
2022-11-23T19:28:58.199Z,83.68
2022-11-23T19:31:27.517Z,83.47
2022-11-23T19:33:58.397Z,83.83
2022-11-23T19:36:26.537Z,84.98
2022-11-23T19:38:58.103Z,85.34
2022-11-23T19:41:30.120Z,85.92
2022-11-23T19:43:59.733Z,86.02
2022-11-23T19:46:29.070Z,86.86
2022-11-23T19:48:58.108Z,87.14
2022-11-23T19:51:26.705Z,87.49
2022-11-23T19:53:57.647Z,87.80
2022-11-23T19:56:28.785Z,87.31
2022-11-23T19:58:58.569Z,86.34
2022-11-23T20:01:28.039Z,86.04
2022-11-23T20:04:04.001Z,85.85
2022-11-23T20:06:37.089Z,86.53
2022-11-23T20:09:07.766Z,86.63
2022-11-23T20:11:36.785Z,86.27
2022-11-23T20:14:04.695Z,86.06
2022-11-23T20:16:33.501Z,86.34
2022-11-23T20:19:04.673Z,86.41
2022-11-23T20:21:34.775Z,86.62
2022-11-23T20:24:05.476Z,87.09
2022-11-23T20:26:36.322Z,88.00
2022-11-23T20:29:06.470Z,88.33
2022-11-23T20:31:35.223Z,88.06
2022-11-23T20:34:07.532Z,87.11
2022-11-23T20:36:38.413Z,87.52
2022-11-23T20:39:08.701Z,87.19
2022-11-23T20:41:38.640Z,86.65
2022-11-23T20:44:08.215Z,85.95
2022-11-23T20:47:00.722Z,86.09
2022-11-23T20:49:23.492Z,86.39
2022-11-23T20:51:51.151Z,86.66
2022-11-23T20:54:19.023Z,86.15
2022-11-23T20:56:48.106Z,85.75
2022-11-23T20:59:15.823Z,85.57
2022-11-23T21:01:43.495Z,85.38
2022-11-23T21:04:11.319Z,85.05
2022-11-23T21:06:40.182Z,84.86
2022-11-23T21:09:08.974Z,84.29
2022-11-23T21:11:54.510Z,83.94
2022-11-23T21:14:27.653Z,83.40
2022-11-23T21:16:58.214Z,83.38
2022-11-23T21:19:27.336Z,83.79
2022-11-23T21:21:55.454Z,83.88
2022-11-23T21:24:23.202Z,83.83
2022-11-23T21:26:50.871Z,83.72
2022-11-23T21:29:19.617Z,83.61
2022-11-23T21:31:50.107Z,83.66
2022-11-23T21:34:20.040Z,83.62
2022-11-23T21:36:48.506Z,83.42
2022-11-23T21:39:17.024Z,83.38
2022-11-23T21:41:45.131Z,82.85
2022-11-23T21:44:13.402Z,82.73
2022-11-23T21:46:42.146Z,82.75
2022-11-23T21:49:11.612Z,82.53
2022-11-23T21:51:39.871Z,82.21
2022-11-23T21:54:10.213Z,82.49
2022-11-23T21:56:37.942Z,82.38
2022-11-23T21:59:06.062Z,82.74
2022-11-23T22:01:36.236Z,82.90
2022-11-23T22:04:08.577Z,82.74
2022-11-23T22:06:37.639Z,82.86
2022-11-23T22:09:07.246Z,82.70
2022-11-23T22:11:36.990Z,82.67
2022-11-23T22:14:07.228Z,82.29
2022-11-23T22:16:36.726Z,82.95
2022-11-23T22:19:05.779Z,83.33
2022-11-23T22:21:36.331Z,83.75
2022-11-23T22:24:06.630Z,83.87
2022-11-23T22:26:34.573Z,83.56
2022-11-23T22:29:06.158Z,83.65
2022-11-23T22:31:34.785Z,84.02
2022-11-23T22:34:03.474Z,84.42
2022-11-23T22:36:31.384Z,84.49
2022-11-23T22:39:02.684Z,84.67
2022-11-23T22:41:34.454Z,83.87
2022-11-23T22:44:02.061Z,84.69
2022-11-23T22:46:29.941Z,85.11
2022-11-23T22:48:59.302Z,85.26
2022-11-23T22:51:29.611Z,84.92
2022-11-23T22:53:58.411Z,85.18
2022-11-23T22:56:26.995Z,85.34
2022-11-23T22:58:56.068Z,85.37
2022-11-23T23:01:26.393Z,85.26
2022-11-23T23:03:55.373Z,84.34
2022-11-23T23:06:24.854Z,84.21
2022-11-23T23:08:55.962Z,84.94
2022-11-23T23:11:25.039Z,85.22
2022-11-23T23:13:52.984Z,85.41
2022-11-23T23:16:22.467Z,85.30
2022-11-23T23:18:50.543Z,85.37
2022-11-23T23:21:19.914Z,86.04
2022-11-23T23:23:49.344Z,85.88
2022-11-23T23:26:18.975Z,86.48
2022-11-23T23:28:47.003Z,86.68
2022-11-23T23:31:17.233Z,86.54
2022-11-23T23:33:46.777Z,86.60
2022-11-23T23:36:16.543Z,85.98
2022-11-23T23:38:44.449Z,86.62
2022-11-23T23:41:13.812Z,86.75
2022-11-23T23:43:42.189Z,86.88
2022-11-23T23:46:11.814Z,86.73
2022-11-23T23:48:40.969Z,86.95
2022-11-23T23:51:11.634Z,86.99
2022-11-23T23:53:39.839Z,87.07
2022-11-23T23:56:09.457Z,87.28
2022-11-23T23:58:37.305Z,87.57
